OCN4AP EDDM-LGMK
Flight info
| Callsign | OCN4AP |
|---|---|
| Flight time | N/A |
| Altitude | 37000 |
| Route | ROTAX4E ROTAX L603 LATLO DCT OBEDI DCT KFT DCT MAGAM DCT TIVNU DCT KEB DCT MEDUX UM867 KOGAT DCT ERANA DCT TSL UL617 SKP UN137 AGAPU |
| Aircraft | A320/M-SDE3FGHIRWY/LB1 |
Departure
| Time | N/A |
|---|---|
| Airport | Munich Airport (EDDM) |
Arrival
| Time | 2026-05-04 15:17 |
|---|---|
| Airport | Mykonos Island National Airport (LGMK) |
| Time | Latitude | Longitude | Altitude | Speed | Heading |
|---|---|---|---|---|---|
| 2026-05-04 13:40 | 45.89231 | 15.73342 | 37627 ft | 438 kts | 132° |
| 2026-05-04 13:41 | 45.87175 | 15.76617 | 37177 ft | 447 kts | 134° |
| 2026-05-04 13:41 | 45.85010 | 15.79880 | 37006 ft | 456 kts | 135° |
| 2026-05-04 13:41 | 45.82786 | 15.83164 | 37055 ft | 461 kts | 135° |
| 2026-05-04 13:42 | 45.76050 | 15.93299 | 37055 ft | 474 kts | 133° |
| 2026-05-04 13:42 | 45.71563 | 16.00266 | 37056 ft | 477 kts | 133° |
| 2026-05-04 13:43 | 45.67069 | 16.07245 | 37054 ft | 477 kts | 133° |
| 2026-05-04 13:43 | 45.62548 | 16.14191 | 37055 ft | 477 kts | 133° |
| 2026-05-04 13:44 | 45.58006 | 16.21113 | 37050 ft | 478 kts | 133° |
| 2026-05-04 13:44 | 45.53461 | 16.28031 | 37052 ft | 478 kts | 133° |
| 2026-05-04 13:45 | 45.48915 | 16.34959 | 37052 ft | 478 kts | 133° |
| 2026-05-04 13:45 | 45.44361 | 16.41889 | 37056 ft | 479 kts | 133° |
| 2026-05-04 13:46 | 45.39791 | 16.48810 | 37059 ft | 479 kts | 133° |
| 2026-05-04 13:46 | 45.35222 | 16.55706 | 37059 ft | 479 kts | 133° |
| 2026-05-04 13:47 | 45.30647 | 16.62587 | 37065 ft | 479 kts | 133° |
| 2026-05-04 13:47 | 45.26058 | 16.69480 | 37063 ft | 479 kts | 133° |
| 2026-05-04 13:48 | 45.21480 | 16.76349 | 37066 ft | 479 kts | 133° |
| 2026-05-04 13:48 | 45.16896 | 16.83214 | 37068 ft | 479 kts | 133° |
| 2026-05-04 13:49 | 45.12307 | 16.90056 | 37071 ft | 479 kts | 133° |
| 2026-05-04 13:49 | 45.07690 | 16.96910 | 37071 ft | 479 kts | 133° |
| 2026-05-04 13:50 | 45.03087 | 17.03730 | 37073 ft | 479 kts | 133° |
| 2026-05-04 13:50 | 44.98488 | 17.10544 | 37071 ft | 479 kts | 133° |
| 2026-05-04 13:51 | 44.93885 | 17.17357 | 37070 ft | 479 kts | 133° |
| 2026-05-04 13:51 | 44.89272 | 17.24160 | 37069 ft | 479 kts | 133° |
| 2026-05-04 13:52 | 44.82333 | 17.34347 | 37074 ft | 480 kts | 133° |
| 2026-05-04 13:53 | 44.77703 | 17.41119 | 37077 ft | 480 kts | 133° |
| 2026-05-04 13:53 | 44.73078 | 17.47876 | 37078 ft | 479 kts | 133° |
| 2026-05-04 13:54 | 44.66108 | 17.58021 | 37084 ft | 480 kts | 133° |
| 2026-05-04 13:55 | 44.59168 | 17.68087 | 37087 ft | 480 kts | 133° |
| 2026-05-04 13:55 | 44.52162 | 17.78210 | 37088 ft | 480 kts | 133° |
| 2026-05-04 13:56 | 44.47565 | 17.84838 | 37090 ft | 480 kts | 133° |
| 2026-05-04 13:57 | 44.40574 | 17.94882 | 37087 ft | 480 kts | 133° |
| 2026-05-04 13:58 | 44.31227 | 18.08232 | 37093 ft | 480 kts | 133° |
| 2026-05-04 13:58 | 44.24211 | 18.18227 | 37088 ft | 480 kts | 133° |
| 2026-05-04 13:59 | 44.19532 | 18.24876 | 37092 ft | 481 kts | 133° |
| 2026-05-04 14:00 | 44.12498 | 18.34848 | 37097 ft | 481 kts | 133° |
| 2026-05-04 14:00 | 44.05446 | 18.44780 | 37091 ft | 481 kts | 134° |
| 2026-05-04 14:01 | 44.00745 | 18.51393 | 37089 ft | 481 kts | 134° |
| 2026-05-04 14:02 | 43.93675 | 18.61310 | 37095 ft | 482 kts | 134° |
| 2026-05-04 14:02 | 43.88954 | 18.67924 | 37096 ft | 482 kts | 134° |
| 2026-05-04 14:03 | 43.84231 | 18.74518 | 37106 ft | 483 kts | 134° |
| 2026-05-04 14:03 | 43.79490 | 18.81113 | 37106 ft | 483 kts | 134° |
| 2026-05-04 14:04 | 43.72365 | 18.90975 | 37106 ft | 483 kts | 134° |
| 2026-05-04 14:04 | 43.67607 | 18.97552 | 37099 ft | 483 kts | 133° |
| 2026-05-04 14:05 | 43.60462 | 19.07407 | 37102 ft | 484 kts | 133° |
| 2026-05-04 14:06 | 43.55775 | 19.13859 | 37091 ft | 469 kts | 134° |
| 2026-05-04 14:06 | 43.51156 | 19.20160 | 37093 ft | 466 kts | 134° |
| 2026-05-04 14:07 | 43.46543 | 19.26423 | 37093 ft | 466 kts | 134° |
| 2026-05-04 14:07 | 43.41900 | 19.32747 | 37097 ft | 466 kts | 133° |
| 2026-05-04 14:08 | 43.37290 | 19.39023 | 37095 ft | 466 kts | 133° |
| 2026-05-04 14:08 | 43.32666 | 19.45285 | 37100 ft | 467 kts | 134° |
| 2026-05-04 14:09 | 43.26502 | 19.53621 | 37101 ft | 467 kts | 133° |
| 2026-05-04 14:10 | 43.19563 | 19.63009 | 37101 ft | 467 kts | 133° |
| 2026-05-04 14:10 | 43.14920 | 19.69254 | 37098 ft | 468 kts | 134° |
| 2026-05-04 14:11 | 43.10270 | 19.75493 | 37099 ft | 468 kts | 134° |
| 2026-05-04 14:11 | 43.03268 | 19.84835 | 37103 ft | 469 kts | 134° |
| 2026-05-04 14:12 | 42.98571 | 19.91094 | 37096 ft | 469 kts | 134° |
| 2026-05-04 14:13 | 42.91560 | 20.00431 | 37108 ft | 470 kts | 134° |
| 2026-05-04 14:13 | 42.86876 | 20.06649 | 37114 ft | 470 kts | 134° |
| 2026-05-04 14:14 | 42.82185 | 20.12858 | 37122 ft | 470 kts | 134° |
| 2026-05-04 14:14 | 42.75142 | 20.22159 | 37129 ft | 470 kts | 134° |
| 2026-05-04 14:15 | 42.65721 | 20.34528 | 37126 ft | 470 kts | 134° |
| 2026-05-04 14:16 | 42.58633 | 20.43804 | 37130 ft | 470 kts | 133° |
| 2026-05-04 14:17 | 42.51530 | 20.53090 | 37135 ft | 471 kts | 134° |
| 2026-05-04 14:18 | 42.44307 | 20.62492 | 37141 ft | 471 kts | 133° |
| 2026-05-04 14:19 | 42.34802 | 20.74804 | 37137 ft | 472 kts | 134° |
| 2026-05-04 14:19 | 42.29984 | 20.81025 | 37136 ft | 472 kts | 134° |
| 2026-05-04 14:20 | 42.25226 | 20.87155 | 37144 ft | 473 kts | 134° |
| 2026-05-04 14:20 | 42.20468 | 20.93269 | 37144 ft | 472 kts | 134° |
| 2026-05-04 14:21 | 42.13318 | 21.02451 | 37139 ft | 473 kts | 134° |
| 2026-05-04 14:21 | 42.08556 | 21.08550 | 37134 ft | 473 kts | 134° |
| 2026-05-04 14:22 | 42.03762 | 21.14652 | 37139 ft | 474 kts | 134° |
| 2026-05-04 14:22 | 41.98980 | 21.20736 | 37136 ft | 473 kts | 134° |
| 2026-05-04 14:23 | 41.91805 | 21.29849 | 37135 ft | 473 kts | 134° |
| 2026-05-04 14:24 | 41.87016 | 21.35910 | 37127 ft | 473 kts | 134° |
| 2026-05-04 14:24 | 41.82227 | 21.41969 | 37125 ft | 472 kts | 134° |
| 2026-05-04 14:25 | 41.77446 | 21.48003 | 37120 ft | 472 kts | 134° |
| 2026-05-04 14:25 | 41.70252 | 21.57031 | 37114 ft | 473 kts | 134° |
| 2026-05-04 14:26 | 41.65488 | 21.63012 | 37113 ft | 473 kts | 134° |
| 2026-05-04 14:26 | 41.60699 | 21.69025 | 37108 ft | 473 kts | 134° |
| 2026-05-04 14:27 | 41.55890 | 21.75033 | 37110 ft | 472 kts | 134° |
| 2026-05-04 14:27 | 41.51083 | 21.81020 | 37107 ft | 473 kts | 134° |
| 2026-05-04 14:28 | 41.46273 | 21.86994 | 37110 ft | 472 kts | 134° |
| 2026-05-04 14:28 | 41.41458 | 21.92971 | 37108 ft | 472 kts | 134° |
| 2026-05-04 14:29 | 41.31832 | 22.04892 | 37109 ft | 473 kts | 135° |
| 2026-05-04 14:30 | 41.27810 | 22.09838 | 37109 ft | 473 kts | 135° |
| 2026-05-04 14:31 | 41.20530 | 22.18789 | 37103 ft | 473 kts | 135° |
| 2026-05-04 14:31 | 41.15436 | 22.24237 | 37105 ft | 476 kts | 147° |
| 2026-05-04 14:32 | 41.09771 | 22.28783 | 37106 ft | 476 kts | 147° |
| 2026-05-04 14:32 | 41.04103 | 22.33306 | 37098 ft | 476 kts | 147° |
| 2026-05-04 14:33 | 40.98424 | 22.37810 | 37100 ft | 476 kts | 147° |
| 2026-05-04 14:33 | 40.92713 | 22.42343 | 37097 ft | 476 kts | 147° |
| 2026-05-04 14:34 | 40.87071 | 22.46810 | 37095 ft | 476 kts | 148° |
| 2026-05-04 14:34 | 40.81408 | 22.51286 | 37092 ft | 476 kts | 148° |
| 2026-05-04 14:35 | 40.75699 | 22.55788 | 37092 ft | 476 kts | 148° |
| 2026-05-04 14:35 | 40.70011 | 22.60267 | 37103 ft | 476 kts | 148° |
| 2026-05-04 14:36 | 40.64324 | 22.64739 | 37107 ft | 476 kts | 148° |
| 2026-05-04 14:36 | 40.58666 | 22.69172 | 37112 ft | 476 kts | 148° |
| 2026-05-04 14:37 | 40.52971 | 22.73627 | 37116 ft | 476 kts | 148° |
| 2026-05-04 14:37 | 40.47286 | 22.78079 | 37117 ft | 476 kts | 148° |
| 2026-05-04 14:38 | 40.41559 | 22.82547 | 37122 ft | 476 kts | 148° |
| 2026-05-04 14:38 | 40.35898 | 22.86942 | 37115 ft | 476 kts | 148° |
| 2026-05-04 14:39 | 40.30177 | 22.91386 | 37109 ft | 476 kts | 148° |
| 2026-05-04 14:39 | 40.24511 | 22.95781 | 37104 ft | 476 kts | 148° |
| 2026-05-04 14:40 | 40.15965 | 23.02393 | 37102 ft | 476 kts | 148° |
| 2026-05-04 14:40 | 40.10266 | 23.06789 | 37097 ft | 475 kts | 148° |
| 2026-05-04 14:41 | 40.04563 | 23.11177 | 37100 ft | 475 kts | 148° |
| 2026-05-04 14:42 | 39.93166 | 23.19918 | 37103 ft | 475 kts | 148° |
| 2026-05-04 14:42 | 39.87467 | 23.24286 | 37102 ft | 475 kts | 149° |
| 2026-05-04 14:43 | 39.81766 | 23.28642 | 37102 ft | 475 kts | 149° |
| 2026-05-04 14:43 | 39.76065 | 23.32988 | 37095 ft | 475 kts | 149° |
| 2026-05-04 14:44 | 39.70355 | 23.37332 | 37100 ft | 475 kts | 149° |
| 2026-05-04 14:44 | 39.64642 | 23.41663 | 37098 ft | 475 kts | 149° |
| 2026-05-04 14:45 | 39.58924 | 23.45989 | 37101 ft | 476 kts | 149° |
| 2026-05-04 14:45 | 39.53198 | 23.50319 | 37101 ft | 476 kts | 149° |
| 2026-05-04 14:46 | 39.47478 | 23.54647 | 37108 ft | 476 kts | 149° |
| 2026-05-04 14:46 | 39.41749 | 23.58966 | 37111 ft | 477 kts | 149° |
| 2026-05-04 14:47 | 39.36018 | 23.63273 | 36711 ft | 477 kts | 149° |
| 2026-05-04 14:47 | 39.33144 | 23.65436 | 36184 ft | 477 kts | 149° |
| 2026-05-04 14:47 | 39.30277 | 23.67586 | 35686 ft | 477 kts | 149° |
| 2026-05-04 14:48 | 39.27399 | 23.69741 | 35216 ft | 478 kts | 149° |
| 2026-05-04 14:48 | 39.24526 | 23.71887 | 34724 ft | 478 kts | 149° |
| 2026-05-04 14:48 | 39.21709 | 23.73992 | 34272 ft | 477 kts | 149° |
| 2026-05-04 14:48 | 39.18780 | 23.76179 | 33738 ft | 477 kts | 149° |
| 2026-05-04 14:49 | 39.15913 | 23.78317 | 33194 ft | 473 kts | 149° |
| 2026-05-04 14:49 | 39.13077 | 23.80430 | 32665 ft | 468 kts | 149° |
| 2026-05-04 14:49 | 39.10281 | 23.82515 | 32144 ft | 461 kts | 148° |
| 2026-05-04 14:49 | 39.07522 | 23.84569 | 31631 ft | 455 kts | 148° |
| 2026-05-04 14:50 | 39.04799 | 23.86598 | 31129 ft | 449 kts | 148° |
| 2026-05-04 14:50 | 39.02113 | 23.88597 | 30635 ft | 443 kts | 148° |
| 2026-05-04 14:50 | 38.99464 | 23.90565 | 30146 ft | 437 kts | 148° |
| 2026-05-04 14:50 | 38.96841 | 23.92505 | 29581 ft | 432 kts | 148° |
| 2026-05-04 14:51 | 38.94256 | 23.94416 | 29019 ft | 426 kts | 148° |
| 2026-05-04 14:51 | 38.91697 | 23.96307 | 28474 ft | 421 kts | 148° |
| 2026-05-04 14:51 | 38.89173 | 23.98172 | 27946 ft | 417 kts | 148° |
| 2026-05-04 14:51 | 38.86678 | 24.00020 | 27406 ft | 412 kts | 148° |
| 2026-05-04 14:52 | 38.84206 | 24.01855 | 26897 ft | 408 kts | 148° |
| 2026-05-04 14:52 | 38.81764 | 24.03665 | 26392 ft | 404 kts | 148° |
| 2026-05-04 14:52 | 38.79337 | 24.05455 | 25890 ft | 401 kts | 148° |
| 2026-05-04 14:52 | 38.76927 | 24.07226 | 25400 ft | 397 kts | 148° |
| 2026-05-04 14:53 | 38.74537 | 24.08982 | 24911 ft | 394 kts | 148° |
| 2026-05-04 14:53 | 38.72161 | 24.10728 | 24449 ft | 392 kts | 148° |
| 2026-05-04 14:53 | 38.69805 | 24.12459 | 23973 ft | 389 kts | 148° |
| 2026-05-04 14:53 | 38.67473 | 24.14171 | 23483 ft | 387 kts | 148° |
| 2026-05-04 14:54 | 38.65129 | 24.15889 | 22929 ft | 385 kts | 148° |
| 2026-05-04 14:54 | 38.62812 | 24.17584 | 22390 ft | 383 kts | 148° |
| 2026-05-04 14:54 | 38.60500 | 24.19280 | 21861 ft | 382 kts | 148° |
| 2026-05-04 14:54 | 38.58199 | 24.20975 | 21331 ft | 380 kts | 148° |
| 2026-05-04 14:55 | 38.55915 | 24.22661 | 20836 ft | 379 kts | 147° |
| 2026-05-04 14:55 | 38.53668 | 24.24313 | 20334 ft | 377 kts | 148° |
| 2026-05-04 14:55 | 38.51365 | 24.25999 | 19831 ft | 376 kts | 148° |
| 2026-05-04 14:55 | 38.49124 | 24.27633 | 19337 ft | 375 kts | 148° |
| 2026-05-04 14:56 | 38.46834 | 24.29300 | 18867 ft | 374 kts | 148° |
| 2026-05-04 14:56 | 38.44580 | 24.30938 | 18481 ft | 371 kts | 148° |
| 2026-05-04 14:56 | 38.42346 | 24.32558 | 18221 ft | 369 kts | 148° |
| 2026-05-04 14:56 | 38.40154 | 24.34170 | 17949 ft | 367 kts | 148° |
| 2026-05-04 14:57 | 38.37958 | 24.35821 | 17694 ft | 366 kts | 147° |
| 2026-05-04 14:57 | 38.35782 | 24.37475 | 17432 ft | 364 kts | 147° |
| 2026-05-04 14:57 | 38.33605 | 24.39135 | 17158 ft | 363 kts | 147° |
| 2026-05-04 14:57 | 38.31438 | 24.40785 | 16895 ft | 362 kts | 147° |
| 2026-05-04 14:58 | 38.29271 | 24.42431 | 16639 ft | 361 kts | 147° |
| 2026-05-04 14:58 | 38.27112 | 24.44068 | 16382 ft | 360 kts | 147° |
| 2026-05-04 14:58 | 38.24958 | 24.45698 | 16170 ft | 359 kts | 147° |
| 2026-05-04 14:58 | 38.22813 | 24.47317 | 15969 ft | 359 kts | 147° |
| 2026-05-04 14:59 | 38.20668 | 24.48934 | 15764 ft | 358 kts | 147° |
| 2026-05-04 14:59 | 38.18522 | 24.50546 | 15567 ft | 357 kts | 147° |
| 2026-05-04 14:59 | 38.14249 | 24.53755 | 15175 ft | 356 kts | 147° |
| 2026-05-04 15:00 | 38.12123 | 24.55354 | 14981 ft | 355 kts | 147° |
| 2026-05-04 15:00 | 38.09998 | 24.56952 | 14775 ft | 355 kts | 147° |
| 2026-05-04 15:00 | 38.07874 | 24.58546 | 14572 ft | 354 kts | 146° |
| 2026-05-04 15:01 | 38.03640 | 24.61716 | 14193 ft | 353 kts | 146° |
| 2026-05-04 15:01 | 38.01527 | 24.63297 | 14003 ft | 352 kts | 146° |
| 2026-05-04 15:01 | 37.99415 | 24.64874 | 13803 ft | 351 kts | 146° |
| 2026-05-04 15:01 | 37.97313 | 24.66442 | 13590 ft | 350 kts | 147° |
| 2026-05-04 15:02 | 37.95217 | 24.68006 | 13378 ft | 349 kts | 147° |
| 2026-05-04 15:02 | 37.93126 | 24.69568 | 13165 ft | 348 kts | 147° |
| 2026-05-04 15:02 | 37.91042 | 24.71120 | 12956 ft | 347 kts | 147° |
| 2026-05-04 15:02 | 37.89002 | 24.72640 | 12755 ft | 346 kts | 147° |
| 2026-05-04 15:03 | 37.86934 | 24.74181 | 12541 ft | 345 kts | 147° |
| 2026-05-04 15:03 | 37.84867 | 24.75719 | 12335 ft | 343 kts | 147° |
| 2026-05-04 15:03 | 37.82814 | 24.77249 | 12128 ft | 342 kts | 147° |
| 2026-05-04 15:03 | 37.80762 | 24.78776 | 11917 ft | 341 kts | 147° |
| 2026-05-04 15:04 | 37.78718 | 24.80297 | 11722 ft | 340 kts | 148° |
| 2026-05-04 15:04 | 37.76685 | 24.81807 | 11538 ft | 329 kts | 148° |
| 2026-05-04 15:04 | 37.75385 | 24.82769 | 11444 ft | 323 kts | 148° |
| 2026-05-04 15:04 | 37.73473 | 24.84179 | 11295 ft | 315 kts | 148° |
| 2026-05-04 15:05 | 37.71587 | 24.85571 | 11148 ft | 313 kts | 148° |
| 2026-05-04 15:05 | 37.69104 | 24.87407 | 10916 ft | 312 kts | 148° |
| 2026-05-04 15:05 | 37.67235 | 24.88794 | 10671 ft | 310 kts | 148° |
| 2026-05-04 15:05 | 37.65381 | 24.90170 | 10433 ft | 309 kts | 148° |
| 2026-05-04 15:06 | 37.63526 | 24.91543 | 10194 ft | 308 kts | 148° |
| 2026-05-04 15:06 | 37.62278 | 24.92464 | 10030 ft | 308 kts | 148° |
| 2026-05-04 15:06 | 37.60430 | 24.93825 | 9772 ft | 307 kts | 149° |
| 2026-05-04 15:07 | 37.56751 | 24.96539 | 9247 ft | 305 kts | 149° |
| 2026-05-04 15:07 | 37.54921 | 24.97889 | 8906 ft | 304 kts | 149° |
| 2026-05-04 15:07 | 37.53095 | 24.99237 | 8569 ft | 304 kts | 149° |
| 2026-05-04 15:07 | 37.51272 | 25.00580 | 8233 ft | 303 kts | 149° |
| 2026-05-04 15:08 | 37.49591 | 25.01818 | 7934 ft | 302 kts | 150° |
| 2026-05-04 15:08 | 37.47806 | 25.03207 | 7606 ft | 301 kts | 143° |
| 2026-05-04 15:08 | 37.46270 | 25.04988 | 7284 ft | 300 kts | 133° |
| 2026-05-04 15:08 | 37.44791 | 25.06886 | 6959 ft | 300 kts | 134° |
| 2026-05-04 15:09 | 37.43344 | 25.08736 | 6644 ft | 300 kts | 134° |
| 2026-05-04 15:09 | 37.41885 | 25.10594 | 6389 ft | 294 kts | 134° |
| 2026-05-04 15:09 | 37.40465 | 25.12400 | 6122 ft | 287 kts | 134° |
| 2026-05-04 15:10 | 37.37725 | 25.15885 | 5590 ft | 274 kts | 134° |
| 2026-05-04 15:10 | 37.36400 | 25.17568 | 5337 ft | 268 kts | 134° |
| 2026-05-04 15:10 | 37.33834 | 25.20831 | 4826 ft | 258 kts | 134° |
| 2026-05-04 15:11 | 37.32579 | 25.22426 | 4566 ft | 255 kts | 134° |
| 2026-05-04 15:11 | 37.31384 | 25.24054 | 4314 ft | 252 kts | 125° |
| 2026-05-04 15:11 | 37.30495 | 25.25930 | 4056 ft | 249 kts | 111° |
| 2026-05-04 15:11 | 37.29975 | 25.27975 | 3810 ft | 244 kts | 97° |
| 2026-05-04 15:12 | 37.29668 | 25.30064 | 3549 ft | 242 kts | 97° |
| 2026-05-04 15:12 | 37.29359 | 25.32133 | 3294 ft | 239 kts | 97° |
| 2026-05-04 15:12 | 37.29054 | 25.34168 | 3083 ft | 235 kts | 96° |
| 2026-05-04 15:12 | 37.28926 | 25.36157 | 2907 ft | 223 kts | 76° |
| 2026-05-04 15:13 | 37.29463 | 25.37898 | 2752 ft | 208 kts | 49° |
| 2026-05-04 15:13 | 37.30480 | 25.39089 | 2586 ft | 194 kts | 25° |
| 2026-05-04 15:13 | 37.31699 | 25.39617 | 2423 ft | 184 kts | 4° |
| 2026-05-04 15:13 | 37.32928 | 25.39509 | 2286 ft | 172 kts | 343° |
| 2026-05-04 15:14 | 37.34023 | 25.39029 | 2129 ft | 162 kts | 340° |
| 2026-05-04 15:14 | 37.35043 | 25.38577 | 1988 ft | 149 kts | 340° |
| 2026-05-04 15:14 | 37.35961 | 25.38172 | 1824 ft | 132 kts | 340° |
| 2026-05-04 15:14 | 37.36802 | 25.37800 | 1639 ft | 126 kts | 341° |
| 2026-05-04 15:15 | 37.37623 | 25.37437 | 1466 ft | 124 kts | 341° |
| 2026-05-04 15:15 | 37.38436 | 25.37078 | 1296 ft | 124 kts | 341° |
| 2026-05-04 15:15 | 37.39243 | 25.36720 | 1130 ft | 123 kts | 341° |
| 2026-05-04 15:16 | 37.40849 | 25.35997 | 855 ft | 123 kts | 340° |
| 2026-05-04 15:16 | 37.41661 | 25.35622 | 680 ft | 124 kts | 340° |
| 2026-05-04 15:16 | 37.43264 | 25.34928 | 412 ft | 113 kts | 341° |
| 2026-05-04 15:17 | 37.43819 | 25.34688 | 413 ft | 45 kts | 341° |
| 2026-05-04 15:17 | 37.44247 | 25.34510 | 413 ft | 20 kts | 356° |
| 2026-05-04 15:17 | 37.44305 | 25.34480 | 413 ft | 3 kts | 233° |
| 2026-05-04 15:18 | 37.44270 | 25.34494 | 413 ft | 12 kts | 160° |
| 2026-05-04 15:18 | 37.44125 | 25.34564 | 413 ft | 29 kts | 159° |
| 2026-05-04 15:18 | 37.43945 | 25.34641 | 415 ft | 25 kts | 163° |
| 2026-05-04 15:19 | 37.43682 | 25.34711 | 414 ft | 17 kts | 198° |
| 2026-05-04 15:19 | 37.43581 | 25.34676 | 414 ft | 14 kts | 170° |
| 2026-05-04 15:19 | 37.43423 | 25.34739 | 414 ft | 10 kts | 191° |
| 2026-05-04 15:20 | 37.43401 | 25.34687 | 411 ft | 0 kts | 258° |
| 2026-05-04 15:24 | 37.43630 | 25.34607 | 412 ft | 0 kts | 254° |
| 2026-05-04 15:25 | 37.43429 | 25.34659 | 410 ft | 0 kts | 145° |